Terminal Aerodrome Forecast
Issued by NWS Cleveland, OH

Home | Current Version | Previous Version | Text Only | Print | Product List | Glossary Off
Versions: 1 2 3 4 5 6 7 8 9 10 11 12 13 14 15 16 17 18 19

000
FTUS41 KCLE 301700
TAFERI
TAF
KERI 301731Z 3018/3118 19012G20KT P6SM FEW120 SCT250
     FM310300 20009KT P6SM VCSH BKN060
     FM310600 21010KT 4SM -SHRA VCTS OVC040CB
     FM311000 22012G20KT 6SM -SHRA OVC040
     FM311500 23012G20KT P6SM OVC050=

USA.gov is the U.S. government's official web portal to all federal, state and local government web resources and services.